首页
METAR-TAF:

METAR-TAF

机场 :

兰辛首都地区国际机场

兰辛, 密歇根州, 美国

纬度: 42-46-49N, 经度: 084-34-44W, 海拔: 262米

当前天气观测

该预报发布于35分钟前的02:53 UTC
风速3节,风向西南
温度 -11°C
湿度 85%
气压 1034 hPa
能見度: 16.1公里
天空无云

METAR: KLAN 120253Z 23003KT 10SM CLR M11/M13 A3052 RMK AO2 SLP353 T11061133 51006

时间: 22:28 (03:28 UTC)

预报

该预报发布于3小时和48分钟前的23:40 UTC
预报有效从12日的 00点(UTC)到 12日的 24点(UTC)
风速7节,风向西
能見度: 10公里
天空无云
从 12日的 1700点(UTC)
风速11节,风向,有时为25节阵风
能見度: 10公里
多云层高于20000英尺
从 12日的 2100点(UTC)
风速12节,风向,有时为30节阵风
能見度: 10公里
多云层高于15000英尺

TAF: KLAN 112340Z 1200/1224 26007KT P6SM SKC FM121700 17011G25KT P6SM BKN200 FM122100 18012G30KT P6SM BKN150 WS020/21045KT

超过4000个机场的气象观测和天气预报(METAR&TAF报告)。

可查询的气象台以黄色和红色小点在地图上表示。

将鼠标移到小点上方,可查看气象台名称。

然后点击查看天气观测和预报。

如需切换地图:点击带黑十字的绿色按钮放大地图;点击带横线的绿色按钮缩小地图;或者点击绿色箭头查看邻近地区的地图。


METAR-TAF: